Time;durP1;ratioP1;P1;durP2;ratioP2;P2;SDS_P1;SDS_P2;PMS_P1;PMS_P2;Temp;Humidity;BMP_temperature;BMP_pressure;BME280_temperature;BME280_humidity;BME280_pressure;Samples;Min_cycle;Max_cycle;Signal;HPM_P1;HPM_P2
2022/10/29 00:01:55;;;;;;;29.52;10.57;;;13.50;99.90;;;;;;5059860;28;20519;-72
2022/10/29 00:04:21;;;;;;;32.05;10.38;;;13.30;99.90;;;;;;5061311;28;20064;-72
2022/10/29 00:06:49;;;;;;;30.00;10.27;;;13.40;99.90;;;;;;5069483;28;20098;-72
2022/10/29 00:09:15;;;;;;;36.40;10.85;;;13.50;99.90;;;;;;5081826;28;20447;-72
2022/10/29 00:11:40;;;;;;;25.08;10.45;;;13.40;99.90;;;;;;5080307;28;20040;-72
2022/10/29 00:14:06;;;;;;;32.08;11.77;;;13.20;99.90;;;;;;5080890;28;20059;-72
2022/10/29 00:16:37;;;;;;;32.22;12.10;;;13.20;99.90;;;;;;5081942;28;20048;-72
2022/10/29 00:19:03;;;;;;;35.17;11.98;;;13.20;99.90;;;;;;5061444;28;20047;-72
2022/10/29 00:21:29;;;;;;;35.58;13.15;;;13.10;99.90;;;;;;5083498;28;20044;-72
2022/10/29 00:23:56;;;;;;;31.73;12.88;;;13.20;99.90;;;;;;5084501;28;20470;-71
2022/10/29 00:26:23;;;;;;;33.42;12.38;;;13.10;99.90;;;;;;5084564;28;20058;-72
2022/10/29 00:28:53;;;;;;;35.65;12.20;;;13.30;99.90;;;;;;5083627;28;20044;-72
2022/10/29 00:31:19;;;;;;;36.47;12.23;;;13.00;99.90;;;;;;5085237;28;20040;-71
2022/10/29 00:33:45;;;;;;;38.65;13.63;;;13.00;99.90;;;;;;5085536;28;20040;-72
2022/10/29 00:36:16;;;;;;;35.20;12.85;;;13.10;99.90;;;;;;5083571;28;20675;-72
2022/10/29 00:38:42;;;;;;;29.75;12.57;;;13.00;99.90;;;;;;5066217;28;20130;-72
2022/10/29 00:41:12;;;;;;;32.63;11.77;;;13.10;99.90;;;;;;5084572;28;20107;-72
2022/10/29 00:43:40;;;;;;;30.63;11.18;;;13.10;99.90;;;;;;5083755;28;20036;-73
2022/10/29 00:46:09;;;;;;;33.58;11.93;;;13.00;99.90;;;;;;5084179;28;20051;-72
2022/10/29 00:48:42;;;;;;;28.15;11.10;;;13.00;99.90;;;;;;5084127;28;20044;-72
2022/10/29 00:51:11;;;;;;;30.40;11.25;;;13.10;99.90;;;;;;5064352;28;20127;-72
2022/10/29 00:53:44;;;;;;;37.75;12.18;;;12.80;99.90;;;;;;5084043;28;20044;-71
2022/10/29 00:56:11;;;;;;;37.22;11.70;;;12.90;99.90;;;;;;5084047;28;20040;-72
2022/10/29 00:58:37;;;;;;;40.30;11.90;;;12.90;99.90;;;;;;5064592;28;20809;-72
2022/10/29 01:01:03;;;;;;;37.83;11.68;;;12.90;99.90;;;;;;5065819;28;20047;-72
2022/10/29 01:03:29;;;;;;;33.38;11.40;;;12.80;99.90;;;;;;5084396;28;20115;-72
2022/10/29 01:05:55;;;;;;;33.65;11.10;;;12.70;99.90;;;;;;5076831;28;20044;-72
2022/10/29 01:08:21;;;;;;;36.95;11.77;;;12.80;99.90;;;;;;5065935;28;20036;-71
2022/10/29 01:11:14;;;;;;;31.92;11.50;;;12.70;99.90;;;;;;5079855;28;20140;-72
2022/10/29 01:13:56;;;;;;;35.75;11.32;;;12.80;99.90;;;;;;5045586;28;20052;-72
2022/10/29 01:16:21;;;;;;;33.70;11.90;;;12.70;99.90;;;;;;5079783;28;20048;-72
2022/10/29 01:19:14;;;;;;;33.20;12.38;;;12.50;99.90;;;;;;5062877;28;20045;-72
2022/10/29 01:21:50;;;;;;;32.95;12.27;;;12.50;99.90;;;;;;5089539;28;20047;-71
2022/10/29 01:24:34;;;;;;;38.47;12.60;;;12.60;99.90;;;;;;5066198;28;20361;-72
2022/10/29 01:27:32;;;;;;;35.92;12.48;;;12.50;99.90;;;;;;5096196;28;20106;-71
2022/10/29 01:30:24;;;;;;;33.30;11.38;;;12.70;99.90;;;;;;5054254;28;20087;-72
2022/10/29 01:33:04;;;;;;;26.73;11.65;;;12.50;99.90;;;;;;5061633;28;20090;-72
2022/10/29 01:35:53;;;;;;;38.63;11.75;;;12.60;99.90;;;;;;5060457;28;20737;-72
2022/10/29 01:38:47;;;;;;;37.40;12.27;;;12.60;99.90;;;;;;5056067;28;20739;-72
2022/10/29 01:41:38;;;;;;;31.98;11.45;;;12.40;99.90;;;;;;5063525;28;20577;-72
2022/10/29 01:44:27;;;;;;;34.63;11.88;;;12.30;99.90;;;;;;5095638;28;20044;-71
2022/10/29 01:47:20;;;;;;;39.72;12.02;;;12.50;99.90;;;;;;5062626;28;20411;-72
2022/10/29 01:49:53;;;;;;;38.15;11.55;;;12.50;99.90;;;;;;5058057;28;20053;-71
2022/10/29 01:52:21;;;;;;;39.58;11.38;;;12.40;99.90;;;;;;5044150;28;20051;-71
2022/10/29 01:54:48;;;;;;;32.38;11.50;;;12.40;99.90;;;;;;5061505;28;20048;-71
2022/10/29 01:57:28;;;;;;;39.33;10.75;;;12.40;99.90;;;;;;5095378;28;20052;-72
2022/10/29 02:00:11;;;;;;;32.42;10.23;;;12.30;99.90;;;;;;5095524;28;20044;-72
2022/10/29 02:02:56;;;;;;;29.55;11.07;;;12.20;99.90;;;;;;5062292;28;20040;-71
2022/10/29 02:05:52;;;;;;;40.42;11.82;;;12.30;99.90;;;;;;5090856;28;20056;-72
2022/10/29 02:08:36;;;;;;;37.70;11.82;;;12.30;99.90;;;;;;5065537;28;20166;-72
2022/10/29 02:11:12;;;;;;;31.90;11.82;;;12.10;99.90;;;;;;5078986;28;20044;-71
2022/10/29 02:13:47;;;;;;;30.25;10.90;;;12.30;99.90;;;;;;5062050;28;20453;-72
2022/10/29 02:16:14;;;;;;;32.92;10.15;;;12.20;99.90;;;;;;5062526;28;20052;-71
2022/10/29 02:18:46;;;;;;;24.95;8.88;;;12.20;99.90;;;;;;5062345;28;20041;-72
2022/10/29 02:21:16;;;;;;;28.95;9.57;;;12.20;99.90;;;;;;5061833;28;20037;-71
2022/10/29 02:23:42;;;;;;;26.63;9.80;;;12.10;99.90;;;;;;5045490;28;20037;-71
2022/10/29 02:26:07;;;;;;;34.85;10.05;;;12.00;99.90;;;;;;5049254;28;20102;-71
2022/10/29 02:28:33;;;;;;;31.52;10.52;;;12.10;99.90;;;;;;5083206;28;20490;-73
2022/10/29 02:30:59;;;;;;;25.45;9.93;;;12.00;99.90;;;;;;5082685;28;20056;-73
2022/10/29 02:33:24;;;;;;;30.75;9.88;;;11.90;99.90;;;;;;5083116;28;20089;-72
2022/10/29 02:35:50;;;;;;;28.85;10.15;;;12.00;99.90;;;;;;5063293;28;20052;-72
2022/10/29 02:38:16;;;;;;;28.27;9.80;;;12.00;99.90;;;;;;5083056;28;20162;-72
2022/10/29 02:40:41;;;;;;;31.42;10.15;;;11.90;99.90;;;;;;5063785;28;20048;-72
2022/10/29 02:43:07;;;;;;;33.85;10.65;;;11.80;99.90;;;;;;5064080;28;20115;-72
2022/10/29 02:45:32;;;;;;;27.10;9.93;;;11.90;99.90;;;;;;5082112;28;20638;-72
2022/10/29 02:47:58;;;;;;;33.60;13.15;;;11.70;99.90;;;;;;5083111;28;20540;-72
2022/10/29 02:50:24;;;;;;;44.72;15.63;;;11.80;99.90;;;;;;5081673;28;20132;-72
2022/10/29 02:52:49;;;;;;;63.20;18.90;;;11.80;99.90;;;;;;5081303;28;20126;-72
2022/10/29 02:55:15;;;;;;;61.53;18.65;;;11.70;99.90;;;;;;5082039;28;20173;-72
2022/10/29 02:57:44;;;;;;;42.08;16.90;;;11.90;99.90;;;;;;5098527;28;20090;-72
2022/10/29 03:00:11;;;;;;;66.68;17.85;;;11.80;99.90;;;;;;5064327;28;20109;-72
2022/10/29 03:02:37;;;;;;;45.08;17.13;;;11.80;99.90;;;;;;5062951;28;20074;-72
2022/10/29 03:05:03;;;;;;;53.55;17.98;;;11.70;99.90;;;;;;5062988;28;20040;-71
2022/10/29 03:07:29;;;;;;;38.22;16.17;;;11.80;99.90;;;;;;5088798;28;20555;-72
2022/10/29 03:09:54;;;;;;;72.50;18.30;;;11.70;99.90;;;;;;5097268;28;20044;-72
2022/10/29 03:12:20;;;;;;;58.08;17.95;;;11.80;99.90;;;;;;5096991;28;20051;-72
2022/10/29 03:14:46;;;;;;;72.68;18.90;;;11.80;99.90;;;;;;5082607;28;20551;-72
2022/10/29 03:17:11;;;;;;;35.08;19.30;;;11.90;99.90;;;;;;5082875;28;20115;-73
2022/10/29 03:19:37;;;;;;;53.60;17.38;;;11.80;99.90;;;;;;5081932;28;20055;-72
2022/10/29 03:22:03;;;;;;;51.75;17.38;;;11.70;99.90;;;;;;5081239;28;20047;-71
2022/10/29 03:24:28;;;;;;;67.07;18.60;;;11.70;99.90;;;;;;5081925;28;20042;-72
2022/10/29 03:26:54;;;;;;;50.33;17.13;;;11.60;99.90;;;;;;5082297;28;20066;-72
2022/10/29 03:29:19;;;;;;;44.92;16.40;;;11.70;99.90;;;;;;5096824;28;20388;-72
2022/10/29 03:31:45;;;;;;;47.05;15.60;;;11.40;99.90;;;;;;5081832;28;20510;-72
2022/10/29 03:34:11;;;;;;;49.63;15.27;;;11.40;99.90;;;;;;5081363;28;20040;-72
2022/10/29 03:36:36;;;;;;;43.47;13.60;;;11.50;99.90;;;;;;5095392;28;20037;-72
2022/10/29 03:39:02;;;;;;;31.73;12.60;;;11.40;99.90;;;;;;5082300;28;20039;-72
2022/10/29 03:41:28;;;;;;;19.90;11.25;;;11.50;99.90;;;;;;5082150;28;20036;-71
2022/10/29 03:43:53;;;;;;;32.13;11.98;;;11.30;99.90;;;;;;5081664;28;20190;-72
2022/10/29 03:46:19;;;;;;;26.13;11.23;;;11.30;99.90;;;;;;5096778;28;20054;-72
2022/10/29 03:48:48;;;;;;;38.47;10.98;;;11.40;99.90;;;;;;5080524;28;20040;-72
2022/10/29 03:51:14;;;;;;;24.23;10.88;;;11.50;99.90;;;;;;5063259;28;20048;-72
2022/10/29 03:53:39;;;;;;;24.10;9.93;;;11.50;99.90;;;;;;5080678;28;20036;-72
2022/10/29 03:56:06;;;;;;;20.88;10.18;;;11.40;99.90;;;;;;5083492;28;20032;-71
2022/10/29 03:58:31;;;;;;;21.80;10.93;;;11.40;99.90;;;;;;5066503;28;20059;-72
2022/10/29 04:01:00;;;;;;;24.90;10.52;;;11.60;99.90;;;;;;5085778;28;20040;-71
2022/10/29 04:03:27;;;;;;;24.52;10.48;;;11.60;99.90;;;;;;5066386;28;20546;-71
2022/10/29 04:05:53;;;;;;;19.73;11.15;;;11.50;99.90;;;;;;5077570;28;20127;-72
2022/10/29 04:08:19;;;;;;;23.63;10.88;;;11.70;99.90;;;;;;5049927;28;20591;-72
2022/10/29 04:10:46;;;;;;;29.17;12.20;;;11.60;99.90;;;;;;5064846;28;20047;-71
2022/10/29 04:13:13;;;;;;;28.05;12.38;;;11.70;99.90;;;;;;5065547;28;20056;-72
2022/10/29 04:15:39;;;;;;;28.33;12.07;;;11.60;99.90;;;;;;5046483;28;20049;-71
2022/10/29 04:18:04;;;;;;;31.95;12.38;;;11.60;99.90;;;;;;5065135;28;20063;-71
2022/10/29 04:20:30;;;;;;;30.35;13.48;;;11.50;99.90;;;;;;5063227;28;20086;-72
2022/10/29 04:22:56;;;;;;;38.30;14.35;;;11.70;99.90;;;;;;5080437;28;20036;-73
2022/10/29 04:25:21;;;;;;;34.78;13.40;;;11.60;99.90;;;;;;5080567;28;20048;-72
2022/10/29 04:27:47;;;;;;;25.75;11.98;;;11.60;99.90;;;;;;5080404;28;20040;-71
2022/10/29 04:30:12;;;;;;;35.40;13.68;;;11.70;99.90;;;;;;5065271;28;20436;-71
2022/10/29 04:32:39;;;;;;;33.05;13.38;;;11.70;99.90;;;;;;5064274;28;20050;-71
2022/10/29 04:35:05;;;;;;;34.95;14.90;;;11.70;99.90;;;;;;5064013;28;20055;-71
2022/10/29 04:37:30;;;;;;;32.75;13.77;;;11.80;99.90;;;;;;5063802;28;20601;-71
2022/10/29 04:39:56;;;;;;;33.55;14.43;;;11.70;99.90;;;;;;5080663;28;20098;-72
2022/10/29 04:42:22;;;;;;;41.47;16.10;;;11.70;99.90;;;;;;5064450;28;20086;-71
2022/10/29 04:44:47;;;;;;;59.35;16.60;;;11.70;99.90;;;;;;5064986;28;20048;-71
2022/10/29 04:47:13;;;;;;;92.88;19.23;;;11.80;99.90;;;;;;5063794;28;20041;-72
2022/10/29 04:49:39;;;;;;;49.08;17.42;;;11.80;99.90;;;;;;5064282;28;20040;-72
2022/10/29 04:52:04;;;;;;;38.70;18.05;;;11.70;99.90;;;;;;5064163;28;20116;-72
2022/10/29 04:54:30;;;;;;;37.88;16.85;;;11.70;99.90;;;;;;5078505;28;20040;-71
2022/10/29 04:56:56;;;;;;;43.92;17.83;;;11.80;99.90;;;;;;5064409;28;20124;-72
2022/10/29 04:59:21;;;;;;;32.80;16.13;;;11.70;99.90;;;;;;5065186;28;20075;-72
2022/10/29 05:01:47;;;;;;;44.33;16.85;;;11.70;99.90;;;;;;5064534;28;20044;-72
2022/10/29 05:04:12;;;;;;;38.85;17.02;;;11.70;99.90;;;;;;5078791;28;20044;-72
2022/10/29 05:06:38;;;;;;;40.97;16.58;;;11.70;99.90;;;;;;5073879;28;20163;-72
2022/10/29 05:09:04;;;;;;;57.05;19.30;;;11.70;99.90;;;;;;5064864;28;20051;-72
2022/10/29 05:11:30;;;;;;;58.83;20.05;;;11.80;99.90;;;;;;5064811;28;20101;-72
2022/10/29 05:13:55;;;;;;;52.58;20.30;;;11.70;99.90;;;;;;5044722;28;20094;-72
2022/10/29 05:16:21;;;;;;;55.90;20.38;;;11.80;99.90;;;;;;5064202;28;20123;-72
2022/10/29 05:18:47;;;;;;;55.50;20.33;;;11.90;99.90;;;;;;5064346;28;20055;-72
2022/10/29 05:21:14;;;;;;;72.00;24.48;;;11.80;99.90;;;;;;5044334;28;20072;-71
2022/10/29 05:23:39;;;;;;;69.88;23.50;;;11.80;99.90;;;;;;5064615;28;20068;-71
2022/10/29 05:26:05;;;;;;;79.30;24.77;;;11.90;99.90;;;;;;5063793;28;20383;-72
2022/10/29 05:28:30;;;;;;;50.85;22.15;;;11.90;99.90;;;;;;5064458;28;20040;-72
2022/10/29 05:31:00;;;;;;;105.38;25.20;;;11.90;99.90;;;;;;5079190;28;20085;-72
2022/10/29 05:33:25;;;;;;;69.80;25.73;;;11.90;99.90;;;;;;5046834;28;20051;-72
2022/10/29 05:35:51;;;;;;;91.53;26.73;;;12.00;99.90;;;;;;5063595;28;20044;-72
2022/10/29 05:38:17;;;;;;;76.32;27.08;;;12.00;99.90;;;;;;5079248;28;20052;-72
2022/10/29 05:40:43;;;;;;;65.15;24.45;;;11.90;99.90;;;;;;5063733;28;20123;-72
2022/10/29 05:43:11;;;;;;;52.85;23.70;;;12.00;99.90;;;;;;5063932;28;20059;-72
2022/10/29 05:45:36;;;;;;;69.93;26.85;;;12.10;99.90;;;;;;5063604;28;20040;-72
2022/10/29 05:48:03;;;;;;;54.97;24.95;;;12.00;99.90;;;;;;5063406;28;20150;-72
2022/10/29 05:50:30;;;;;;;122.18;27.48;;;12.10;99.90;;;;;;5062242;28;20105;-72
2022/10/29 05:53:06;;;;;;;67.97;24.90;;;12.10;99.90;;;;;;5063709;28;20119;-72
2022/10/29 05:55:33;;;;;;;76.43;26.15;;;12.10;99.90;;;;;;5061854;28;20040;-72
2022/10/29 05:58:04;;;;;;;63.97;25.83;;;12.00;99.90;;;;;;5045311;28;20044;-72
2022/10/29 06:00:33;;;;;;;67.72;26.38;;;12.10;99.90;;;;;;5063126;28;20044;-72
2022/10/29 06:02:58;;;;;;;55.70;22.95;;;12.20;99.90;;;;;;5061727;28;20063;-72
2022/10/29 06:05:24;;;;;;;54.30;23.60;;;12.20;99.90;;;;;;5066445;28;20625;-72
2022/10/29 06:07:57;;;;;;;68.68;25.80;;;12.10;99.90;;;;;;5069863;28;20052;-72
2022/10/29 06:10:25;;;;;;;104.30;27.95;;;12.10;99.90;;;;;;5044406;28;20410;-71
2022/10/29 06:12:50;;;;;;;100.25;27.50;;;12.20;99.90;;;;;;5045101;28;20102;-71
2022/10/29 06:15:16;;;;;;;64.13;25.50;;;12.20;99.90;;;;;;5061985;28;20056;-71
2022/10/29 06:17:43;;;;;;;62.65;24.63;;;12.20;99.90;;;;;;5062462;28;20056;-71
2022/10/29 06:20:11;;;;;;;67.75;24.90;;;12.10;99.90;;;;;;5060745;28;20045;-71
2022/10/29 06:22:37;;;;;;;79.95;25.05;;;12.20;99.90;;;;;;5062078;28;20045;-71
2022/10/29 06:25:03;;;;;;;73.22;25.83;;;12.10;99.90;;;;;;5062402;28;20051;-71
2022/10/29 06:27:28;;;;;;;111.57;26.38;;;12.20;99.90;;;;;;5059802;28;20060;-71
2022/10/29 06:29:54;;;;;;;70.43;23.25;;;12.20;99.90;;;;;;5060740;28;20044;-71
2022/10/29 06:32:20;;;;;;;59.83;23.45;;;12.30;99.90;;;;;;5062651;28;20044;-71
2022/10/29 06:34:45;;;;;;;66.60;23.42;;;12.20;99.90;;;;;;5059870;28;20036;-71
2022/10/29 06:37:11;;;;;;;64.13;23.17;;;12.20;99.90;;;;;;5059714;28;20045;-71
2022/10/29 06:39:37;;;;;;;98.53;25.02;;;12.30;99.90;;;;;;5060948;28;20036;-71
2022/10/29 06:42:03;;;;;;;67.82;23.48;;;12.20;99.90;;;;;;5061439;28;20486;-71
2022/10/29 06:44:28;;;;;;;58.53;22.88;;;12.30;99.90;;;;;;5060057;28;20048;-71
2022/10/29 06:46:54;;;;;;;74.85;24.67;;;12.40;99.90;;;;;;5061779;28;20044;-71
2022/10/29 06:49:20;;;;;;;60.78;21.90;;;12.30;99.90;;;;;;5061289;28;20605;-71
2022/10/29 06:51:46;;;;;;;61.75;22.38;;;12.30;99.90;;;;;;5061332;28;20131;-72
2022/10/29 06:54:12;;;;;;;112.82;24.55;;;12.40;99.90;;;;;;5060435;28;20372;-72
2022/10/29 06:56:37;;;;;;;72.88;22.52;;;12.30;99.90;;;;;;5060120;28;20127;-72
2022/10/29 06:59:03;;;;;;;62.78;20.00;;;12.40;99.90;;;;;;5060190;28;20048;-72
2022/10/29 07:01:31;;;;;;;80.90;20.95;;;12.40;99.90;;;;;;5061653;28;20048;-72
2022/10/29 07:03:58;;;;;;;87.10;21.83;;;12.50;99.90;;;;;;5061186;28;20497;-72
2022/10/29 07:06:24;;;;;;;125.93;23.05;;;12.40;99.90;;;;;;5071894;28;20128;-72
2022/10/29 07:08:50;;;;;;;77.15;21.45;;;12.50;99.90;;;;;;5097583;28;20174;-72
2022/10/29 07:11:15;;;;;;;86.97;22.20;;;12.50;99.90;;;;;;5081057;28;20450;-71
2022/10/29 07:13:41;;;;;;;69.03;21.30;;;12.50;99.90;;;;;;5081992;28;20490;-71
2022/10/29 07:16:07;;;;;;;107.10;24.20;;;12.60;99.90;;;;;;5082137;28;20040;-72
2022/10/29 07:18:32;;;;;;;99.13;24.63;;;12.60;99.90;;;;;;5081942;28;20055;-71
2022/10/29 07:21:00;;;;;;;149.20;26.50;;;12.60;99.90;;;;;;5079685;28;20067;-72
2022/10/29 07:23:26;;;;;;;111.53;23.50;;;12.70;99.90;;;;;;5082152;28;20048;-71
2022/10/29 07:25:52;;;;;;;99.30;24.05;;;12.60;99.90;;;;;;5082037;28;20380;-72
2022/10/29 07:28:24;;;;;;;115.40;23.45;;;12.60;99.90;;;;;;5063314;28;20047;-72
2022/10/29 07:30:50;;;;;;;115.05;25.33;;;12.60;99.90;;;;;;5086279;28;20123;-71
2022/10/29 07:33:17;;;;;;;78.68;23.70;;;12.70;99.90;;;;;;5086447;28;20735;-72
2022/10/29 07:35:43;;;;;;;117.75;25.80;;;12.70;99.90;;;;;;5067891;28;20036;-72
2022/10/29 07:38:10;;;;;;;96.07;25.05;;;12.80;99.90;;;;;;5066618;28;20059;-72
2022/10/29 07:40:38;;;;;;;152.48;27.27;;;12.80;99.90;;;;;;5085974;28;20067;-72
2022/10/29 07:43:04;;;;;;;109.85;26.45;;;12.80;99.90;;;;;;5086576;28;20513;-71
2022/10/29 07:45:29;;;;;;;104.65;25.17;;;12.80;99.90;;;;;;5068021;28;20044;-71
2022/10/29 07:48:03;;;;;;;92.53;24.02;;;12.80;99.90;;;;;;5067849;28;20044;-71
2022/10/29 07:50:30;;;;;;;100.53;23.83;;;12.80;99.90;;;;;;5084763;28;20044;-71
2022/10/29 07:52:59;;;;;;;106.03;25.13;;;12.80;99.90;;;;;;5066922;28;20113;-71
2022/10/29 07:55:24;;;;;;;114.25;25.20;;;12.90;99.90;;;;;;5085036;28;20047;-71
2022/10/29 07:58:00;;;;;;;132.73;26.05;;;12.80;99.90;;;;;;5080557;28;20063;-71
2022/10/29 08:00:29;;;;;;;125.38;24.42;;;12.90;99.90;;;;;;5065263;28;20098;-71
2022/10/29 08:02:55;;;;;;;104.65;24.50;;;13.00;99.90;;;;;;5065257;28;20048;-70
2022/10/29 08:05:22;;;;;;;105.70;24.17;;;12.90;99.90;;;;;;5059671;28;20143;-71
2022/10/29 08:07:47;;;;;;;99.22;22.25;;;13.00;99.90;;;;;;5071411;28;20094;-71
2022/10/29 08:10:13;;;;;;;135.35;26.23;;;13.00;99.90;;;;;;5064711;28;20044;-71
2022/10/29 08:12:39;;;;;;;142.05;26.75;;;13.00;99.90;;;;;;5064150;28;20056;-70
2022/10/29 08:15:05;;;;;;;117.80;25.15;;;13.00;99.90;;;;;;5065346;28;20088;-71
2022/10/29 08:17:31;;;;;;;123.15;27.23;;;13.10;99.90;;;;;;5063539;28;20060;-70
2022/10/29 08:19:57;;;;;;;114.03;27.45;;;13.20;99.90;;;;;;5080203;28;20044;-71
2022/10/29 08:22:23;;;;;;;117.05;27.23;;;13.20;99.90;;;;;;5064608;28;20544;-69
2022/10/29 08:24:48;;;;;;;91.03;24.10;;;13.20;99.90;;;;;;5065076;28;20068;-70
2022/10/29 08:27:14;;;;;;;118.65;28.45;;;13.10;99.90;;;;;;5067916;28;20126;-70
2022/10/29 08:29:40;;;;;;;118.78;29.42;;;13.20;99.90;;;;;;5064298;28;20051;-71
2022/10/29 08:32:06;;;;;;;112.40;30.67;;;13.20;99.90;;;;;;5064416;28;20080;-70
2022/10/29 08:34:31;;;;;;;112.63;29.13;;;13.10;99.90;;;;;;5062998;28;20052;-70
2022/10/29 08:36:57;;;;;;;112.35;29.52;;;13.20;99.90;;;;;;5065262;28;20384;-70
2022/10/29 08:39:23;;;;;;;105.72;29.20;;;13.20;99.90;;;;;;5064782;28;20048;-70
2022/10/29 08:42:27;;;;;;;104.40;29.73;;;13.20;99.90;;;;;;5064066;28;20052;-70
2022/10/29 08:45:09;;;;;;;113.45;31.05;;;13.40;99.90;;;;;;5064422;28;20058;-70
2022/10/29 08:48:07;;;;;;;103.55;33.05;;;13.30;99.90;;;;;;5045619;28;20111;-68
2022/10/29 08:50:40;;;;;;;104.20;33.85;;;13.30;99.90;;;;;;5034851;28;20053;-70
2022/10/29 08:53:16;;;;;;;77.30;29.92;;;13.40;99.90;;;;;;5064458;28;20399;-70
2022/10/29 08:55:43;;;;;;;78.28;31.15;;;13.50;99.90;;;;;;5063623;28;20049;-69
2022/10/29 08:58:32;;;;;;;82.05;31.77;;;13.50;99.90;;;;;;5063027;28;20036;-70
2022/10/29 09:00:57;;;;;;;84.90;33.92;;;13.30;99.90;;;;;;5067477;28;20060;-70
2022/10/29 09:03:28;;;;;;;78.10;32.63;;;13.50;99.90;;;;;;5063704;28;20033;-71
2022/10/29 09:06:30;;;;;;;80.28;33.47;;;13.50;99.90;;;;;;5072162;28;20394;-70
2022/10/29 09:09:14;;;;;;;85.82;36.83;;;13.60;99.90;;;;;;5064177;28;20152;-69
2022/10/29 09:12:00;;;;;;;87.25;38.90;;;13.70;99.90;;;;;;5064209;28;20102;-65
2022/10/29 09:14:52;;;;;;;80.57;36.47;;;13.60;99.90;;;;;;5063217;28;20080;-66
2022/10/29 09:17:44;;;;;;;87.45;37.78;;;13.60;99.90;;;;;;5063242;28;20153;-65
2022/10/29 09:20:20;;;;;;;80.28;37.03;;;13.40;99.90;;;;;;5062402;28;20137;-65
2022/10/29 09:22:52;;;;;;;80.60;39.88;;;13.50;99.90;;;;;;5062292;28;20041;-66
2022/10/29 09:25:28;;;;;;;82.97;37.70;;;13.60;99.90;;;;;;5063322;28;20048;-66
2022/10/29 09:28:21;;;;;;;75.47;37.00;;;13.90;99.90;;;;;;5063408;28;20047;-66
2022/10/29 09:30:47;;;;;;;57.97;32.03;;;13.80;99.90;;;;;;5063779;28;20617;-66
2022/10/29 09:33:18;;;;;;;67.28;33.83;;;13.70;99.90;;;;;;5064185;28;20064;-66
2022/10/29 09:35:48;;;;;;;63.45;33.83;;;13.80;99.90;;;;;;5063292;28;20040;-66
2022/10/29 09:38:17;;;;;;;61.63;33.30;;;13.90;99.90;;;;;;5062928;28;20051;-66
2022/10/29 09:40:43;;;;;;;59.90;31.63;;;13.80;99.90;;;;;;5063475;28;20040;-66
2022/10/29 09:43:41;;;;;;;57.30;31.42;;;14.00;99.90;;;;;;5045878;28;20059;-67
2022/10/29 09:46:16;;;;;;;56.17;29.88;;;14.00;99.90;;;;;;5078661;28;20049;-66
2022/10/29 09:49:00;;;;;;;;;;;13.80;99.90;;;;;;5062621;28;20068;-67
2022/10/29 09:51:44;;;;;;;58.33;29.10;;;13.90;99.90;;;;;;5062613;28;19920;-65
2022/10/29 09:54:10;;;;;;;48.40;29.30;;;13.90;99.90;;;;;;5062295;28;20143;-67
2022/10/29 09:56:41;;;;;;;49.35;28.15;;;13.80;99.90;;;;;;5062640;28;20667;-67
2022/10/29 09:59:38;;;;;;;57.10;30.00;;;14.10;99.90;;;;;;5044604;28;20445;-67
2022/10/29 10:02:24;;;;;;;54.35;28.20;;;13.90;99.90;;;;;;5062618;28;20556;-67
2022/10/29 10:04:57;;;;;;;48.42;26.05;;;14.00;99.90;;;;;;5064462;28;20512;-66
2022/10/29 10:07:22;;;;;;;46.92;26.58;;;14.20;99.90;;;;;;5071123;28;20040;-66
2022/10/29 10:09:59;;;;;;;55.13;28.17;;;14.20;99.90;;;;;;5063111;28;20051;-66
2022/10/29 10:12:42;;;;;;;46.67;26.17;;;14.00;99.90;;;;;;5062967;28;20064;-66
2022/10/29 10:15:20;;;;;;;42.38;24.50;;;14.10;99.90;;;;;;5061735;28;20056;-66
2022/10/29 10:17:58;;;;;;;42.67;25.23;;;14.10;99.90;;;;;;5061632;28;20044;-66
2022/10/29 10:20:27;;;;;;;45.67;24.83;;;14.20;99.90;;;;;;5060826;28;20045;-69
2022/10/29 10:22:52;;;;;;;44.33;25.23;;;14.20;99.90;;;;;;5062507;28;20048;-66
2022/10/29 10:25:35;;;;;;;44.45;23.73;;;14.20;99.90;;;;;;5062163;28;20063;-67
2022/10/29 10:28:29;;;;;;;45.58;26.08;;;14.40;99.90;;;;;;5044319;28;20056;-66
2022/10/29 10:31:03;;;;;;;43.33;23.75;;;14.70;99.90;;;;;;5053140;28;20062;-66
2022/10/29 10:33:31;;;;;;;39.38;23.23;;;15.20;99.90;;;;;;5044356;28;20044;-67
2022/10/29 10:36:08;;;;;;;34.63;20.58;;;15.10;99.90;;;;;;5044822;28;20052;-68
2022/10/29 10:38:43;;;;;;;36.30;20.40;;;15.50;99.90;;;;;;5062104;28;20044;-68
2022/10/29 10:41:10;;;;;;;38.00;20.55;;;15.40;99.90;;;;;;5061896;28;20051;-67
2022/10/29 10:43:36;;;;;;;35.72;19.48;;;15.50;99.90;;;;;;5063314;28;20131;-66
2022/10/29 10:46:26;;;;;;;36.70;19.58;;;15.50;99.90;;;;;;5063347;28;20102;-66
2022/10/29 10:49:11;;;;;;;31.38;18.48;;;15.60;99.90;;;;;;5063179;28;20060;-66
2022/10/29 10:51:41;;;;;;;29.55;17.30;;;15.60;99.90;;;;;;5044755;28;20453;-66
2022/10/29 10:54:29;;;;;;;29.60;17.33;;;15.60;99.90;;;;;;5062303;28;20076;-66
2022/10/29 10:57:10;;;;;;;30.65;17.80;;;15.60;99.90;;;;;;5077397;28;20048;-65
2022/10/29 11:00:01;;;;;;;30.60;16.98;;;16.00;99.90;;;;;;5062136;28;20053;-67
2022/10/29 11:02:58;;;;;;;36.03;17.67;;;15.90;99.90;;;;;;5062813;28;20082;-66
2022/10/29 11:05:44;;;;;;;29.00;16.75;;;16.00;99.90;;;;;;5046653;28;20448;-67
2022/10/29 11:08:44;;;;;;;29.70;16.70;;;16.40;99.90;;;;;;5081162;28;20071;-69
2022/10/29 11:11:16;;;;;;;25.90;15.45;;;16.20;99.90;;;;;;5046749;28;20057;-69
2022/10/29 11:13:43;;;;;;;33.88;16.98;;;16.40;99.90;;;;;;5081410;28;20048;-68
2022/10/29 11:16:19;;;;;;;30.15;16.52;;;16.30;99.90;;;;;;5084285;28;20060;-71
2022/10/29 11:18:49;;;;;;;;;;;16.50;99.90;;;;;;5061697;28;20045;-67
2022/10/29 11:21:33;;;;;;;26.40;15.65;;;16.80;99.90;;;;;;5061674;28;20391;-67
2022/10/29 11:24:11;;;;;;;28.48;15.77;;;16.60;99.90;;;;;;5079735;28;20056;-67
2022/10/29 11:26:52;;;;;;;26.67;15.85;;;17.10;99.90;;;;;;5064222;28;20438;-65
2022/10/29 11:29:44;;;;;;;26.85;14.82;;;17.30;99.90;;;;;;5081899;28;20048;-67
2022/10/29 11:32:25;;;;;;;22.70;12.68;;;17.10;99.90;;;;;;5050870;28;20443;-67
2022/10/29 11:35:16;;;;;;;20.92;12.73;;;17.10;99.90;;;;;;5079766;28;20047;-67
2022/10/29 11:37:59;;;;;;;23.33;13.55;;;17.10;99.90;;;;;;5043610;28;20087;-65
2022/10/29 11:40:42;;;;;;;20.58;12.05;;;17.30;99.90;;;;;;5061338;28;20045;-67
2022/10/29 11:43:11;;;;;;;17.52;10.25;;;17.30;99.90;;;;;;5077752;28;20051;-66
2022/10/29 11:45:48;;;;;;;19.02;11.38;;;17.40;99.90;;;;;;5026623;28;20044;-66
2022/10/29 11:48:32;;;;;;;23.23;12.18;;;17.80;99.90;;;;;;5054693;28;20043;-66
2022/10/29 11:51:26;;;;;;;19.53;11.57;;;18.40;99.90;;;;;;5080228;28;20041;-66
2022/10/29 11:53:57;;;;;;;16.75;11.50;;;17.90;99.90;;;;;;5081747;28;20325;-66
2022/10/29 11:56:44;;;;;;;21.40;11.65;;;18.00;99.90;;;;;;5079994;28;20044;-66
2022/10/29 11:59:47;;;;;;;18.63;11.80;;;18.20;99.90;;;;;;5081489;28;20531;-66
2022/10/29 12:02:25;;;;;;;18.10;11.43;;;18.30;99.90;;;;;;5081716;28;20050;-59
2022/10/29 12:05:16;;;;;;;22.55;12.75;;;18.40;99.90;;;;;;5077112;28;20093;-67
2022/10/29 12:07:57;;;;;;;23.73;12.80;;;18.30;99.90;;;;;;5073606;28;20059;-68
2022/10/29 12:10:56;;;;;;;26.88;13.30;;;18.40;99.90;;;;;;5080920;28;20632;-67
2022/10/29 12:13:31;;;;;;;21.50;12.75;;;18.20;99.90;;;;;;5081287;28;20056;-67
2022/10/29 12:16:29;;;;;;;23.55;12.60;;;18.30;99.90;;;;;;5081865;28;20055;-67
2022/10/29 12:19:16;;;;;;;21.83;12.52;;;18.20;99.90;;;;;;4996165;28;20070;-67
2022/10/29 12:22:13;;;;;;;21.13;12.93;;;18.20;99.90;;;;;;5067970;28;20060;-68
2022/10/29 12:24:59;;;;;;;22.42;12.10;;;18.20;99.90;;;;;;5086247;28;20044;-67
2022/10/29 12:27:31;;;;;;;23.25;12.50;;;18.40;99.90;;;;;;5084920;28;20040;-67
2022/10/29 12:30:08;;;;;;;25.20;13.68;;;18.30;99.90;;;;;;5099982;28;20043;-67
2022/10/29 12:32:51;;;;;;;22.67;13.55;;;18.50;99.90;;;;;;5084360;28;20032;-67
2022/10/29 12:35:42;;;;;;;22.63;12.70;;;18.40;99.90;;;;;;5100196;28;20427;-67
2022/10/29 12:38:32;;;;;;;22.23;12.70;;;18.40;99.90;;;;;;5084908;28;20035;-65
2022/10/29 12:41:21;;;;;;;22.35;12.18;;;18.40;99.90;;;;;;5066982;28;20070;-66
2022/10/29 12:43:47;;;;;;;23.83;12.63;;;18.30;99.90;;;;;;5066932;28;20044;-67
2022/10/29 12:46:27;;;;;;;23.08;11.88;;;18.50;99.90;;;;;;5084449;28;20124;-66
2022/10/29 12:49:12;;;;;;;21.30;11.77;;;18.70;99.90;;;;;;5065330;28;20438;-67
2022/10/29 12:51:59;;;;;;;24.77;11.77;;;18.70;99.90;;;;;;5050574;28;20566;-66